Archival Weather

Joint Base Andrews

Camp Springs, Maryland (KADW)

Report from: Tuesday, February 27, 2024 6:55 AM EST
Current time: Wednesday, May 29, 2024 7:50 PM EDT

Current weather – Weather history – Daily summaries
Weather forecast

Temperature9.3°C (48.7°F)
Wind chill8.3°C (47.0°F)
Dew point3.3°C (37.9°F)
Winds 4 kts (2.1 m/s, 4.6 mph) South-Southwest (200°)
Visibility10 mi. (16.1 km)
Clouds Sky clear
Altimeter29.93 in.Hg (1014 mB)
Relative humidity66 %
Density altitude-603 ft. (-184 m)
Sea-level pressure101.4 kPa (1014 mB, 29.95 in.Hg)
Max temp last 6 hours10.2°C (50.4°F)
Min temp last 6 hours6.8°C (44.2°F)
Remarks Fully automated report
System requires maintenance
Automated weather observing station with precipitation discriminator
Pressure rising, then falling
Flight conditions Visual Meteorological Conditions
Raw dataKADW 271155Z AUTO 20004KT 10SM CLR 09/03 A2993 RMK AO2 SLP143 T00930033 10102 20068 50003 $
An error has occurred. This application may no longer respond until reloaded. Reload 🗙